EPKK/KRK METAR and TAF weather

Enter ICAO airport designator
Station Type Date Time Source
EPKK METAR 2021/03/05 20:00 UTC NOAA

EPKK 052000Z 30005KT 9999 -SN BKN053 M01/M05 Q1025


Station Type Date Time Source
EPKK Decoded METAR 2021/03/05 20:00 UTC NOAA

Krakow, Poland (EPKK) 50-05N 019-48E 237M
Mar 05, 2021 - 03:00 PM EST / 2021.03.05 2000 UTC
Wind: from the WNW (300 degrees) at 6 MPH (5 KT):0
Visibility: greater than 7 mile(s):0
Sky conditions: mostly cloudy
Weather: light snow
Temperature: 30 F (-1 C)
Windchill: 23 F (-5 C):1
Dew Point: 23 F (-5 C)
Relative Humidity: 74%
Pressure (altimeter): 30.27 in. Hg (1025 hPa)
ob: EPKK 052000Z 30005KT 9999 -SN BKN053 M01/M05 Q1025
cycle: 20

Station Type Date Time Source
EPKK TAF 2021/03/05 18:33 UTC NOAA

TAF EPKK 051730Z 0518/0618 28007KT CAVOK PROB30
TEMPO 0518/0615 4000 -SHSN BKN014CB

Example: see airport list